Time;durP1;ratioP1;P1;durP2;ratioP2;P2;SDS_P1;SDS_P2;PMS_P1;PMS_P2;Temp;Humidity;BMP_temperature;BMP_pressure;BME280_temperature;BME280_humidity;BME280_pressure;Samples;Min_cycle;Max_cycle;Signal;HPM_P1;HPM_P2
2022/08/12 00:43:02;;;;;;;2.08;0.98;;;;;;;18.92;57.04;100567.13;5548358;32;32520;-67
2022/08/12 00:49:40;;;;;;;1.87;0.90;;;;;;;18.78;57.67;100555.63;5534190;32;33914;-69
2022/08/12 00:52:48;;;;;;;2.95;1.00;;;;;;;18.70;58.25;100558.56;5551786;32;33944;-70
2022/08/12 00:55:55;;;;;;;1.02;0.75;;;;;;;18.61;58.58;100555.31;5551680;32;34172;-68
2022/08/12 00:59:02;;;;;;;1.08;0.70;;;;;;;18.55;59.04;100566.91;5551737;32;34595;-68
2022/08/12 01:02:05;;;;;;;1.37;1.05;;;;;;;18.52;59.30;100566.50;5550996;32;34528;-70
2022/08/12 01:12:03;;;;;;;2.28;0.68;;;;;;;18.32;60.27;100568.44;5551655;32;33936;-69
2022/08/12 01:15:06;;;;;;;1.17;0.85;;;;;;;18.25;60.49;100571.16;5552032;32;34055;-70
2022/08/12 01:18:10;;;;;;;1.20;0.90;;;;;;;18.25;60.71;100573.84;5551651;32;33987;-70
2022/08/12 01:22:06;;;;;;;1.33;0.70;;;;;;;18.20;60.84;100573.69;5551722;32;35187;-70
2022/08/12 01:25:15;;;;;;;1.00;0.80;;;;;;;18.09;61.14;100567.09;5472960;32;34691;-70
2022/08/12 01:28:19;;;;;;;1.80;1.00;;;;;;;18.04;61.17;100558.03;5472967;32;34245;-70
2022/08/12 01:31:22;;;;;;;2.28;0.80;;;;;;;18.05;61.26;100560.53;5472976;32;34130;-69
2022/08/12 01:34:31;;;;;;;1.08;0.80;;;;;;;18.06;61.02;100559.47;5472948;32;33896;-69
2022/08/12 01:37:44;;;;;;;1.55;1.00;;;;;;;18.02;61.05;100549.34;5472934;32;34177;-69
2022/08/12 01:40:51;;;;;;;1.52;0.80;;;;;;;18.01;61.10;100558.47;5472987;32;33927;-70
2022/08/12 01:43:59;;;;;;;1.40;1.05;;;;;;;17.96;61.19;100550.22;5448237;32;34127;-70
2022/08/12 01:47:38;;;;;;;1.83;1.00;;;;;;;17.95;61.36;100554.78;5473191;32;34219;-69
2022/08/12 01:50:53;;;;;;;2.53;1.00;;;;;;;17.94;61.41;100557.66;5472865;32;34024;-70
2022/08/12 01:54:08;;;;;;;2.97;1.42;;;;;;;17.92;61.51;100546.28;5472694;32;34025;-70
2022/08/12 01:57:31;;;;;;;1.40;1.10;;;;;;;17.93;61.57;100547.94;5550289;32;34088;-69
2022/08/12 02:01:10;;;;;;;1.85;0.90;;;;;;;17.87;61.62;100538.06;5550946;32;34138;-70
2022/08/12 02:12:06;;;;;;;1.52;0.80;;;;;;;17.74;62.18;100537.06;5550266;32;33510;-70
2022/08/12 02:15:40;;;;;;;2.33;1.02;;;;;;;17.67;62.62;100533.56;5551039;32;34413;-69
2022/08/12 02:18:54;;;;;;;1.65;1.10;;;;;;;17.69;62.58;100528.81;5550992;32;34086;-70
2022/08/12 02:22:03;;;;;;;3.85;1.10;;;;;;;17.67;62.93;100522.03;5550043;32;32472;-69
2022/08/12 02:25:14;;;;;;;1.42;1.10;;;;;;;17.58;62.83;100521.38;5551188;32;34518;-70
2022/08/12 02:28:17;;;;;;;1.30;1.05;;;;;;;17.58;63.03;100516.00;5550621;32;34418;-69
2022/08/12 02:31:26;;;;;;;1.37;1.12;;;;;;;17.60;62.98;100518.53;5550873;32;34064;-70
2022/08/12 02:34:30;;;;;;;1.27;1.10;;;;;;;17.51;63.33;100519.75;5550691;32;34837;-70
2022/08/12 02:37:35;;;;;;;1.95;1.10;;;;;;;17.49;63.51;100511.91;5551067;32;34065;-70
2022/08/12 02:40:41;;;;;;;2.25;0.90;;;;;;;17.50;63.41;100520.78;5550050;32;34691;-69
2022/08/12 02:43:50;;;;;;;1.80;1.02;;;;;;;17.49;63.49;100514.59;5537575;32;33888;-68
2022/08/12 02:46:55;;;;;;;3.62;1.10;;;;;;;17.46;63.73;100512.34;5550806;32;34023;-69
2022/08/12 02:50:02;;;;;;;1.48;1.12;;;;;;;17.49;63.70;100506.53;5550792;32;33912;-70
2022/08/12 02:53:06;;;;;;;1.55;1.00;;;;;;;17.41;63.89;100517.50;5550742;32;34020;-70
2022/08/12 02:56:11;;;;;;;2.95;1.10;;;;;;;17.31;64.36;100509.88;5550893;32;34706;-69
2022/08/12 02:59:15;;;;;;;1.55;0.90;;;;;;;17.35;64.24;100503.06;5550830;32;33950;-70
2022/08/12 03:02:26;;;;;;;1.65;1.10;;;;;;;17.32;64.58;100510.72;5550723;32;33947;-70
2022/08/12 03:05:32;;;;;;;1.67;1.20;;;;;;;17.24;64.75;100514.41;5551131;32;34731;-69
2022/08/12 03:08:48;;;;;;;4.28;1.10;;;;;;;17.20;65.06;100504.31;5550156;32;34663;-70
2022/08/12 03:12:03;;;;;;;1.33;1.20;;;;;;;17.15;65.45;100501.44;5550694;32;34411;-70
2022/08/12 03:15:11;;;;;;;3.60;1.30;;;;;;;17.05;65.77;100509.06;5550730;32;33945;-70
2022/08/12 03:18:21;;;;;;;4.25;1.20;;;;;;;17.02;65.80;100502.28;5550687;32;34256;-70
2022/08/12 03:21:36;;;;;;;2.95;1.10;;;;;;;17.01;65.73;100503.31;5550920;32;34624;-69
2022/08/12 03:25:04;;;;;;;1.25;1.10;;;;;;;17.05;65.61;100504.53;5550584;32;34416;-70
2022/08/12 03:28:12;;;;;;;2.12;1.20;;;;;;;17.08;65.64;100506.81;5549458;32;32969;-70
2022/08/12 03:31:28;;;;;;;1.75;0.98;;;;;;;17.06;65.63;100508.03;5550707;32;33938;-70
2022/08/12 03:34:34;;;;;;;3.37;1.30;;;;;;;17.00;65.94;100504.31;5550499;32;34033;-71
2022/08/12 03:37:38;;;;;;;3.97;1.30;;;;;;;16.99;66.01;100508.06;5549253;32;33430;-70
2022/08/12 04:01:41;;;;;;;1.98;1.23;;;;;;;16.86;66.77;100522.25;5509561;32;34556;-69
2022/08/12 04:04:45;;;;;;;3.35;1.40;;;;;;;16.92;66.67;100520.62;5509648;32;33850;-69
2022/08/12 04:07:48;;;;;;;3.53;1.27;;;;;;;16.95;66.57;100531.75;5509403;32;34601;-70
2022/08/12 04:14:21;;;;;;;2.58;1.30;;;;;;;16.99;66.51;100532.19;5509403;32;33893;-70
2022/08/12 04:17:26;;;;;;;2.87;1.33;;;;;;;17.01;66.44;100531.94;5509008;32;35305;-71
2022/08/12 04:20:30;;;;;;;2.50;1.40;;;;;;;17.02;66.43;100528.25;5539235;32;33048;-70
2022/08/12 04:23:34;;;;;;;1.80;1.30;;;;;;;17.02;66.40;100526.41;5551960;32;35196;-70
2022/08/12 04:26:40;;;;;;;1.70;1.15;;;;;;;17.07;66.22;100520.41;5551392;32;33365;-70
2022/08/12 04:29:43;;;;;;;12.55;1.40;;;;;;;17.07;67.68;100526.59;5551990;32;34335;-71
2022/08/12 04:33:12;;;;;;;1.90;1.20;;;;;;;17.02;66.95;100536.28;5550767;32;32864;-70
2022/08/12 04:36:15;;;;;;;3.97;1.20;;;;;;;17.04;67.12;100536.94;5551941;32;33986;-70
2022/08/12 04:39:19;;;;;;;3.17;1.30;;;;;;;17.05;67.54;100539.38;5551887;32;33973;-70
2022/08/12 04:42:24;;;;;;;3.95;1.30;;;;;;;17.05;67.45;100538.56;5551663;32;34323;-70
2022/08/12 04:45:33;;;;;;;4.85;1.27;;;;;;;17.11;67.47;100540.41;5551718;32;34024;-70
2022/08/12 04:48:36;;;;;;;39.80;4.28;;;;;;;17.21;67.52;100548.87;5551678;32;35589;-71
2022/08/12 04:51:39;;;;;;;2.75;1.52;;;;;;;17.34;66.77;100557.72;5551729;32;34081;-70
2022/08/12 04:54:42;;;;;;;1.92;1.25;;;;;;;17.44;66.21;100560.00;5551839;32;33963;-70
2022/08/12 04:57:45;;;;;;;1.50;1.00;;;;;;;17.50;65.37;100563.69;5551117;32;32480;-72
2022/08/12 05:00:48;;;;;;;3.90;1.40;;;;;;;17.57;65.24;100564.53;5551617;32;35215;-71
2022/08/12 05:03:51;;;;;;;1.67;1.20;;;;;;;17.64;65.35;100576.09;5550981;32;33394;-70
2022/08/12 05:06:54;;;;;;;2.55;1.23;;;;;;;17.74;64.70;100561.22;5551691;32;34246;-72
2022/08/12 05:09:57;;;;;;;1.58;1.10;;;;;;;17.79;64.34;100572.16;5551606;32;35295;-71
2022/08/12 05:13:13;;;;;;;9.20;1.25;;;;;;;17.82;64.13;100570.88;5551407;32;34176;-72
2022/08/12 05:16:15;;;;;;;1.33;1.10;;;;;;;17.95;63.43;100572.72;5551251;32;33938;-71
2022/08/12 05:19:29;;;;;;;3.47;1.12;;;;;;;18.00;63.12;100571.06;5551364;32;34027;-69
2022/08/12 05:22:32;;;;;;;2.55;1.55;;;;;;;18.09;62.50;100567.09;5551852;32;34091;-71
2022/08/12 05:25:41;;;;;;;1.35;1.20;;;;;;;18.18;62.71;100573.06;5550304;32;34583;-71
2022/08/12 05:28:45;;;;;;;2.25;1.10;;;;;;;18.25;61.79;100574.66;5550713;32;34335;-71
2022/08/12 05:31:54;;;;;;;2.92;1.20;;;;;;;18.37;61.55;100569.47;5551268;32;34318;-69
2022/08/12 05:35:05;;;;;;;2.30;1.40;;;;;;;18.33;61.35;100575.47;5551559;32;34363;-72
2022/08/12 05:41:34;;;;;;;1.62;1.17;;;;;;;18.60;61.63;100582.38;5551188;32;34774;-71
2022/08/12 05:44:37;;;;;;;2.83;1.30;;;;;;;18.62;60.83;100572.25;5551040;32;35416;-70
2022/08/12 05:47:39;;;;;;;4.32;1.20;;;;;;;18.60;60.83;100567.09;5550912;32;34184;-72
2022/08/12 05:50:56;;;;;;;2.80;1.30;;;;;;;18.65;60.74;100569.13;5551175;32;33971;-71
2022/08/12 05:53:59;;;;;;;2.03;1.45;;;;;;;18.78;60.46;100569.06;5550130;32;34553;-72
2022/08/12 05:57:02;;;;;;;3.80;1.70;;;;;;;18.92;60.15;100573.31;5551031;32;33891;-70
2022/08/12 06:00:06;;;;;;;3.87;1.40;;;;;;;18.99;59.85;100570.56;5550892;32;34706;-68
2022/08/12 06:03:16;;;;;;;3.87;1.30;;;;;;;18.88;59.77;100571.28;5550293;32;34036;-70
2022/08/12 06:06:22;;;;;;;6.65;1.40;;;;;;;19.07;59.62;100568.44;5550859;32;33955;-70
2022/08/12 06:09:31;;;;;;;3.28;1.35;;;;;;;19.12;59.01;100572.34;5550784;32;34622;-70
2022/08/12 06:12:34;;;;;;;3.33;1.33;;;;;;;19.20;59.09;100572.06;5550796;32;34705;-71
2022/08/12 06:15:36;;;;;;;2.55;1.48;;;;;;;19.38;58.17;100572.94;5551142;32;34083;-71
2022/08/12 06:18:40;;;;;;;2.25;1.23;;;;;;;19.53;58.17;100568.09;5549966;32;33952;-71
2022/08/12 06:21:47;;;;;;;3.33;1.40;;;;;;;19.67;56.63;100566.06;5550581;32;33968;-73
2022/08/12 06:24:52;;;;;;;1.15;1.00;;;;;;;19.74;57.09;100569.53;5550723;32;34072;-69
2022/08/12 06:27:57;;;;;;;3.25;1.33;;;;;;;19.84;56.14;100569.03;5549628;32;34030;-72
2022/08/12 06:31:15;;;;;;;2.72;1.17;;;;;;;19.94;56.44;100577.41;5549463;32;33074;-70
2022/08/12 06:34:30;;;;;;;2.12;1.20;;;;;;;19.99;55.34;100576.72;5550669;32;33958;-71
2022/08/12 06:37:54;;;;;;;2.25;1.30;;;;;;;20.09;55.48;100572.44;5550535;32;34024;-69
2022/08/12 06:44:22;;;;;;;2.33;1.35;;;;;;;20.27;55.12;100561.69;5550636;32;34107;-71
2022/08/12 06:47:24;;;;;;;3.95;1.50;;;;;;;20.58;54.34;100559.81;5550255;32;34200;-71
2022/08/12 06:50:28;;;;;;;3.78;1.35;;;;;;;20.87;53.63;100567.06;5550532;32;33934;-70
2022/08/12 06:53:32;;;;;;;5.97;1.45;;;;;;;20.99;53.36;100570.62;5549178;32;33193;-71
2022/08/12 06:56:35;;;;;;;5.82;1.30;;;;;;;21.41;52.04;100574.12;5550061;32;33935;-71
2022/08/12 06:59:58;;;;;;;2.70;1.50;;;;;;;21.63;51.53;100566.28;5550490;32;34663;-71
2022/08/12 07:03:04;;;;;;;2.33;1.37;;;;;;;21.90;49.91;100570.13;5550426;32;34724;-71
2022/08/12 07:06:25;;;;;;;2.67;1.45;;;;;;;22.02;50.18;100570.13;5549853;32;34568;-72
2022/08/12 07:09:28;;;;;;;2.65;1.40;;;;;;;22.12;50.40;100566.84;5550459;32;34077;-68
2022/08/12 07:12:55;;;;;;;4.22;1.25;;;;;;;22.55;48.66;100564.44;5550968;32;34533;-71
2022/08/12 07:15:58;;;;;;;3.95;1.20;;;;;;;23.17;47.15;100570.72;5549630;32;32869;-70
2022/08/12 07:19:03;;;;;;;1.25;1.00;;;;;;;23.71;46.54;100569.16;5550552;32;34566;-72
2022/08/12 07:22:06;;;;;;;3.35;1.12;;;;;;;24.66;44.12;100570.59;5550192;32;34546;-71
2022/08/12 07:28:33;;;;;;;3.08;1.20;;;;;;;24.61;42.75;100581.41;5550071;32;34049;-68
2022/08/12 07:31:37;;;;;;;1.77;1.30;;;;;;;24.64;42.92;100584.41;5550077;32;33959;-70
2022/08/12 07:34:42;;;;;;;4.25;1.70;;;;;;;24.42;43.04;100578.22;5550207;32;34213;-71
2022/08/12 07:37:52;;;;;;;3.08;1.40;;;;;;;24.49;42.92;100587.00;5550159;32;33976;-71
2022/08/12 07:40:54;;;;;;;3.65;1.12;;;;;;;24.80;42.20;100579.16;5549546;32;33007;-69
2022/08/12 07:44:03;;;;;;;2.20;1.20;;;;;;;24.73;42.40;100573.13;5549840;32;34671;-72
2022/08/12 07:47:07;;;;;;;;;;;;;;;26.34;39.76;100578.91;5549988;32;33905;-72
2022/08/12 07:50:17;;;;;;;1.37;1.00;;;;;;;25.53;40.57;100570.28;5550097;32;34781;-73
2022/08/12 07:53:26;;;;;;;2.15;1.10;;;;;;;26.32;39.31;100576.50;5549163;32;32936;-70
2022/08/12 07:56:30;;;;;;;4.57;1.15;;;;;;;26.14;39.63;100568.75;5549057;32;34518;-70
2022/08/12 07:59:34;;;;;;;3.85;1.17;;;;;;;26.90;38.14;100563.59;5548392;32;32118;-68
2022/08/12 08:02:37;;;;;;;3.28;1.20;;;;;;;26.06;38.97;100565.72;5548740;32;33374;-69
2022/08/12 08:05:45;;;;;;;4.40;1.30;;;;;;;27.99;36.32;100578.44;5548794;32;33896;-69
2022/08/12 08:08:47;;;;;;;5.85;1.10;;;;;;;27.61;36.37;100561.66;5548234;32;32982;-73
2022/08/12 08:15:23;;;;;;;1.87;1.30;;;;;;;29.17;34.42;100569.37;5549407;32;33918;-73
2022/08/12 08:18:46;;;;;;;2.75;1.10;;;;;;;28.88;33.87;100563.84;5548658;32;33425;-70
2022/08/12 08:21:49;;;;;;;2.45;1.30;;;;;;;27.94;35.30;100564.84;5549169;32;34131;-71
2022/08/12 08:24:56;;;;;;;4.75;1.23;;;;;;;29.42;33.06;100558.25;5549322;32;34389;-70
2022/08/12 08:28:13;;;;;;;1.58;1.23;;;;;;;29.02;33.79;100564.84;5549137;32;34053;-71
2022/08/12 08:31:16;;;;;;;2.42;1.30;;;;;;;28.95;33.84;100556.97;5549465;32;33972;-72
2022/08/12 08:34:20;;;;;;;2.20;1.17;;;;;;;30.70;30.96;100550.94;5548956;32;34558;-71
2022/08/12 08:37:45;;;;;;;2.65;1.30;;;;;;;29.74;32.02;100546.69;5548970;32;34067;-69
2022/08/12 08:44:11;;;;;;;4.85;1.08;;;;;;;28.79;33.93;100544.53;5548827;32;34091;-69
2022/08/12 08:47:14;;;;;;;8.48;2.05;;;;;;;30.50;31.39;100551.28;5549063;32;34096;-69
2022/08/12 08:50:17;;;;;;;5.10;1.15;;;;;;;32.06;29.38;100552.41;5547824;32;34657;-70
2022/08/12 08:53:20;;;;;;;2.20;1.20;;;;;;;31.00;30.43;100536.75;5547947;32;34184;-66
2022/08/12 08:56:23;;;;;;;1.42;0.98;;;;;;;29.97;31.14;100551.34;5547943;32;32858;-68
2022/08/12 08:59:26;;;;;;;2.47;1.10;;;;;;;29.86;32.16;100541.63;5548822;32;35187;-68
2022/08/12 09:02:29;;;;;;;3.53;1.30;;;;;;;30.42;30.87;100541.75;5548987;32;34234;-70
2022/08/12 09:05:33;;;;;;;1.90;1.00;;;;;;;32.43;28.36;100541.19;5549911;32;34035;-70
2022/08/12 09:08:55;;;;;;;3.83;1.10;;;;;;;32.20;28.61;100534.00;5551293;32;35166;-70
2022/08/12 09:15:30;;;;;;;2.78;1.20;;;;;;;33.51;27.34;100522.56;5551384;32;35239;-70
2022/08/12 09:18:38;;;;;;;1.50;1.00;;;;;;;34.80;25.23;100522.09;5550980;32;34458;-70
2022/08/12 09:21:46;;;;;;;3.92;1.17;;;;;;;34.07;25.57;100515.50;5550181;32;32998;-70
2022/08/12 09:24:56;;;;;;;2.60;1.20;;;;;;;34.47;24.60;100521.72;5550996;32;34983;-68
2022/08/12 09:28:03;;;;;;;2.80;1.33;;;;;;;32.82;26.66;100518.59;5551162;32;33923;-71
2022/08/12 09:31:21;;;;;;;4.55;1.58;;;;;;;32.97;27.12;100514.66;5550842;32;34017;-70
2022/08/12 09:34:44;;;;;;;3.03;1.27;;;;;;;32.93;27.35;100511.72;5551122;32;34088;-71
2022/08/12 09:37:54;;;;;;;4.95;1.27;;;;;;;33.57;26.52;100504.00;5551264;32;34049;-67
2022/08/12 09:41:02;;;;;;;2.33;1.20;;;;;;;32.27;27.80;100504.22;5551105;32;33934;-69
2022/08/12 09:48:15;;;;;;;2.30;1.05;;;;;;;30.53;31.19;100499.47;5551145;32;34344;-70
2022/08/12 09:51:25;;;;;;;3.62;1.20;;;;;;;31.92;28.51;100500.28;5551155;32;33946;-69
2022/08/12 09:54:45;;;;;;;3.25;1.23;;;;;;;33.06;27.33;100494.34;5551083;32;34694;-70
2022/08/12 09:57:51;;;;;;;2.30;1.10;;;;;;;34.60;24.65;100493.22;5550990;32;34772;-71
2022/08/12 10:01:15;;;;;;;1.92;1.17;;;;;;;34.77;24.03;100492.41;5551173;32;34315;-67
2022/08/12 10:04:25;;;;;;;4.37;1.50;;;;;;;31.84;27.35;100481.78;5550976;32;32365;-70
2022/08/12 10:07:31;;;;;;;2.25;1.20;;;;;;;33.01;26.54;100485.41;5551811;32;33953;-69
2022/08/12 10:14:23;;;;;;;2.05;1.10;;;;;;;30.23;29.49;100486.19;5550857;32;34613;-69
2022/08/12 10:17:38;;;;;;;3.65;1.25;;;;;;;30.97;29.17;100476.28;5549937;32;33916;-67
2022/08/12 10:21:08;;;;;;;4.62;1.25;;;;;;;32.29;26.95;100469.03;5550603;32;34111;-66
2022/08/12 10:24:14;;;;;;;4.53;1.27;;;;;;;30.34;29.80;100464.94;5550693;32;34050;-67
2022/08/12 10:31:04;;;;;;;2.67;1.10;;;;;;;32.23;27.41;100464.78;5541349;32;32900;-70
2022/08/12 10:34:09;;;;;;;2.25;1.02;;;;;;;34.99;23.26;100469.34;5537317;32;33206;-69
2022/08/12 10:37:25;;;;;;;1.55;1.12;;;;;;;34.45;23.82;100457.87;5550830;32;34702;-68
2022/08/12 10:44:21;;;;;;;3.30;0.90;;;;;;;29.26;30.95;100450.94;5550719;32;34565;-71
2022/08/12 10:47:27;;;;;;;1.65;1.08;;;;;;;32.97;26.03;100443.19;5549627;32;34207;-69
2022/08/12 10:50:50;;;;;;;6.07;1.12;;;;;;;34.77;23.53;100462.91;5550063;32;34048;-67
2022/08/12 10:54:05;;;;;;;1.83;1.05;;;;;;;35.97;20.98;100464.37;5549985;32;34006;-68
2022/08/12 10:57:15;;;;;;;3.00;1.20;;;;;;;34.36;23.01;100459.84;5549958;32;34135;-69
2022/08/12 11:00:40;;;;;;;12.18;1.73;;;;;;;32.61;25.95;100452.31;5550619;32;34551;-68
2022/08/12 11:04:04;;;;;;;1.20;1.10;;;;;;;30.94;28.54;100460.44;5549808;32;34908;-67
2022/08/12 11:07:34;;;;;;;3.75;1.08;;;;;;;31.70;27.68;100470.00;5549667;32;32323;-68
2022/08/12 11:11:00;;;;;;;2.35;1.10;;;;;;;33.12;26.07;100453.75;5550148;32;34221;-68
2022/08/12 11:14:09;;;;;;;3.53;1.02;;;;;;;33.25;25.26;100463.91;5550272;32;34091;-69
2022/08/12 11:17:32;;;;;;;2.90;1.25;;;;;;;32.65;26.16;100466.25;5549160;32;34415;-68
2022/08/12 11:20:55;;;;;;;1.42;0.90;;;;;;;31.68;27.10;100464.81;5538632;32;34473;-69
2022/08/12 11:24:07;;;;;;;2.85;1.50;;;;;;;31.45;27.93;100458.41;5550441;32;33975;-69
2022/08/12 11:27:30;;;;;;;3.53;1.35;;;;;;;31.98;26.95;100446.09;5548709;32;32734;-67
2022/08/12 11:30:33;;;;;;;2.60;1.30;;;;;;;31.33;27.96;100444.37;5548928;32;32915;-67
2022/08/12 11:33:40;;;;;;;1.87;1.10;;;;;;;29.76;30.68;100443.28;5549621;32;34155;-70
2022/08/12 11:37:06;;;;;;;5.40;1.50;;;;;;;30.36;30.09;100449.03;5549445;32;32628;-69
2022/08/12 11:40:29;;;;;;;3.03;1.17;;;;;;;30.45;29.96;100442.59;5550272;32;34069;-68
2022/08/12 11:43:32;;;;;;;1.10;0.88;;;;;;;30.98;28.75;100437.59;5550249;32;34062;-66
2022/08/12 11:46:57;;;;;;;4.37;1.25;;;;;;;31.47;28.73;100438.88;5548740;32;33375;-68
2022/08/12 11:50:01;;;;;;;1.62;1.08;;;;;;;32.88;26.86;100436.81;5548947;32;34129;-67
2022/08/12 11:53:05;;;;;;;2.10;1.10;;;;;;;33.56;25.68;100436.34;5549002;32;34394;-68
2022/08/12 11:56:28;;;;;;;3.20;1.40;;;;;;;34.47;24.34;100442.62;5549471;32;34009;-68
2022/08/12 11:59:42;;;;;;;5.30;1.10;;;;;;;33.41;26.05;100434.03;5550404;32;34656;-67
2022/08/12 12:03:13;;;;;;;3.22;1.10;;;;;;;35.26;23.59;100435.84;5529747;32;33747;-68
2022/08/12 12:06:21;;;;;;;2.15;1.17;;;;;;;34.07;25.18;100426.59;5549356;32;33737;-68
2022/08/12 12:09:25;;;;;;;2.25;1.25;;;;;;;34.76;24.53;100424.66;5549947;32;34220;-69
2022/08/12 12:12:48;;;;;;;1.90;0.90;;;;;;;36.93;22.39;100430.09;5549698;32;33925;-68
2022/08/12 12:15:52;;;;;;;2.67;1.05;;;;;;;37.43;21.02;100429.78;5549925;32;34707;-69
2022/08/12 12:18:55;;;;;;;1.62;0.90;;;;;;;38.43;20.44;100425.38;5549608;32;33976;-70
2022/08/12 12:21:57;;;;;;;2.17;1.00;;;;;;;40.48;17.77;100418.44;5548984;32;33550;-69
2022/08/12 12:25:00;;;;;;;1.20;1.10;;;;;;;40.48;18.08;100415.66;5549464;32;33951;-69
2022/08/12 12:28:16;;;;;;;1.40;1.10;;;;;;;38.08;20.19;100407.72;5549650;32;33737;-68
2022/08/12 12:31:38;;;;;;;1.65;1.08;;;;;;;39.05;19.44;100404.47;5549444;32;33910;-69
2022/08/12 12:35:01;;;;;;;2.00;0.90;;;;;;;40.24;18.15;100400.13;5549476;32;34768;-67
2022/08/12 12:38:24;;;;;;;1.58;1.00;;;;;;;38.68;19.45;100406.66;5549336;32;34029;-70
2022/08/12 12:41:28;;;;;;;3.35;0.95;;;;;;;36.54;21.48;100394.72;5550912;32;34369;-70
2022/08/12 12:44:50;;;;;;;1.87;1.00;;;;;;;38.97;19.35;100383.28;5551559;32;34655;-70
2022/08/12 12:47:59;;;;;;;1.77;1.15;;;;;;;40.59;17.92;100391.66;5551724;32;34081;-71
2022/08/12 12:51:14;;;;;;;1.35;1.05;;;;;;;41.12;17.23;100383.47;5550835;32;33350;-70
2022/08/12 12:54:51;;;;;;;1.95;1.10;;;;;;;41.84;16.43;100373.03;5540308;32;32405;-68
2022/08/12 12:57:57;;;;;;;4.37;1.17;;;;;;;39.50;18.52;100365.97;5551087;32;33438;-70
2022/08/12 13:01:03;;;;;;;1.60;1.20;;;;;;;40.33;17.57;100361.75;5550992;32;34027;-71
2022/08/12 13:04:32;;;;;;;1.98;1.08;;;;;;;36.54;21.33;100351.28;5551741;32;34780;-68
2022/08/12 13:07:38;;;;;;;5.25;1.10;;;;;;;34.88;24.13;100347.59;5550647;32;33018;-70
2022/08/12 13:11:04;;;;;;;8.02;1.10;;;;;;;33.00;26.00;100349.09;5550507;32;32654;-70
2022/08/12 13:14:08;;;;;;;2.60;1.00;;;;;;;32.58;26.93;100345.78;5551614;32;34848;-69
2022/08/12 13:17:30;;;;;;;2.72;1.40;;;;;;;30.87;28.63;100342.22;5551549;32;34298;-69
2022/08/12 13:20:54;;;;;;;1.95;1.30;;;;;;;29.67;30.54;100335.69;5550602;32;33934;-69
2022/08/12 13:24:02;;;;;;;4.32;1.00;;;;;;;29.26;30.66;100330.72;5550743;32;33366;-68
2022/08/12 13:27:17;;;;;;;2.92;0.88;;;;;;;28.97;30.85;100332.72;5550678;32;34026;-67
2022/08/12 13:30:22;;;;;;;1.67;1.08;;;;;;;28.80;31.20;100322.25;5551128;32;33967;-67
2022/08/12 13:33:28;;;;;;;1.33;1.10;;;;;;;28.80;30.57;100333.19;5550607;32;35318;-68
2022/08/12 13:36:50;;;;;;;3.53;0.98;;;;;;;29.58;29.88;100332.78;5550944;32;33917;-69
2022/08/12 13:39:53;;;;;;;1.65;1.00;;;;;;;30.37;28.63;100331.03;5551085;32;34204;-67
2022/08/12 13:43:00;;;;;;;5.20;1.00;;;;;;;32.85;24.90;100331.09;5551068;32;34579;-68
2022/08/12 13:46:07;;;;;;;5.35;1.20;;;;;;;34.40;22.93;100331.34;5550108;32;34079;-70
2022/08/12 13:49:15;;;;;;;4.07;0.93;;;;;;;38.78;18.91;100336.00;5550620;32;34004;-70
2022/08/12 13:52:38;;;;;;;4.03;1.30;;;;;;;38.60;18.54;100328.03;5549768;32;33136;-68
2022/08/12 13:55:51;;;;;;;2.62;1.50;;;;;;;39.89;17.88;100324.34;5550779;32;34661;-69
2022/08/12 13:59:06;;;;;;;4.80;1.00;;;;;;;42.39;15.23;100321.16;5550220;32;32568;-69
2022/08/12 14:02:12;;;;;;;3.10;1.10;;;;;;;40.82;15.75;100316.56;5550788;32;34011;-71
2022/08/12 14:05:16;;;;;;;2.20;1.00;;;;;;;39.41;17.44;100314.56;5550782;32;33950;-70
2022/08/12 14:08:39;;;;;;;3.90;0.93;;;;;;;41.28;15.82;100313.72;5539270;32;32448;-68
2022/08/12 14:11:45;;;;;;;2.70;0.90;;;;;;;42.80;14.31;100321.91;5550998;32;34668;-68
2022/08/12 14:15:01;;;;;;;0.85;0.80;;;;;;;42.55;14.27;100309.75;5550558;32;34673;-70
2022/08/12 14:18:13;;;;;;;3.42;0.93;;;;;;;43.36;13.73;100308.78;5536495;32;34688;-69
2022/08/12 14:21:19;;;;;;;1.52;1.00;;;;;;;43.69;14.01;100306.56;5549194;32;32808;-70
2022/08/12 14:24:24;;;;;;;1.83;0.85;;;;;;;41.63;15.48;100291.97;5550493;32;34125;-69
2022/08/12 14:27:31;;;;;;;1.85;1.00;;;;;;;39.07;17.80;100294.72;5549759;32;33946;-71
2022/08/12 14:31:04;;;;;;;2.30;1.00;;;;;;;38.66;18.37;100296.09;5549649;32;34089;-69
2022/08/12 14:34:20;;;;;;;1.55;0.90;;;;;;;39.94;17.32;100294.28;5549738;32;33575;-70
2022/08/12 14:37:30;;;;;;;1.65;0.90;;;;;;;40.87;16.51;100293.19;5550470;32;34792;-71
2022/08/12 14:40:58;;;;;;;1.58;1.10;;;;;;;37.81;19.46;100276.34;5549342;32;34623;-69
2022/08/12 14:44:03;;;;;;;3.53;1.10;;;;;;;33.89;23.34;100272.41;5549291;32;34149;-70
2022/08/12 14:47:26;;;;;;;2.60;1.02;;;;;;;32.57;25.26;100264.53;5549766;32;34819;-70
2022/08/12 14:50:38;;;;;;;2.30;1.10;;;;;;;31.76;26.26;100266.59;5549115;32;34475;-71
2022/08/12 14:54:07;;;;;;;2.92;1.10;;;;;;;31.65;27.00;100253.44;5550130;32;34777;-69
2022/08/12 14:57:33;;;;;;;2.33;1.12;;;;;;;31.74;26.66;100257.87;5549227;32;32803;-69
2022/08/12 15:04:21;;;;;;;2.72;1.17;;;;;;;31.90;26.15;100250.09;5549309;32;34412;-69
2022/08/12 15:07:26;;;;;;;1.25;0.93;;;;;;;32.18;25.73;100253.50;5549580;32;34451;-69
2022/08/12 15:10:50;;;;;;;1.87;1.10;;;;;;;32.66;25.44;100239.88;5549192;32;32748;-70
2022/08/12 15:13:55;;;;;;;2.00;1.40;;;;;;;31.88;26.08;100239.41;5549730;32;34399;-68
2022/08/12 15:16:58;;;;;;;1.60;1.10;;;;;;;31.37;27.04;100239.78;5549678;32;34037;-68
2022/08/12 15:20:05;;;;;;;8.02;1.62;;;;;;;31.27;27.60;100231.81;5549788;32;33956;-69
2022/08/12 15:23:30;;;;;;;5.50;1.25;;;;;;;31.24;27.93;100224.19;5550079;32;33202;-69
2022/08/12 15:26:46;;;;;;;1.50;1.20;;;;;;;30.89;27.99;100231.19;5549163;32;34547;-70
2022/08/12 15:29:52;;;;;;;4.20;1.20;;;;;;;30.11;28.83;100232.12;5548973;32;32667;-70
2022/08/12 15:32:57;;;;;;;4.62;1.10;;;;;;;30.19;28.96;100231.47;5550159;32;33951;-70
2022/08/12 15:36:01;;;;;;;3.12;1.65;;;;;;;30.49;28.65;100215.62;5549064;32;34102;-68
2022/08/12 15:39:04;;;;;;;3.90;1.12;;;;;;;30.03;29.50;100219.16;5550460;32;34585;-69
2022/08/12 15:42:19;;;;;;;2.90;1.17;;;;;;;29.30;31.77;100219.75;5549847;32;33944;-70
2022/08/12 15:45:22;;;;;;;4.93;1.20;;;;;;;29.41;31.81;100225.88;5549297;32;34399;-68
2022/08/12 15:48:26;;;;;;;1.58;1.20;;;;;;;29.12;32.68;100228.72;5549198;32;34655;-65
2022/08/12 15:51:34;;;;;;;3.72;1.23;;;;;;;28.48;33.79;100215.56;5549063;32;32468;-66
2022/08/12 15:54:58;;;;;;;1.75;1.37;;;;;;;28.36;34.11;100223.34;5548753;32;33058;-69
2022/08/12 15:58:08;;;;;;;3.47;0.95;;;;;;;28.23;34.31;100219.34;5549601;32;33089;-70
2022/08/12 16:01:16;;;;;;;3.05;1.20;;;;;;;28.18;34.67;100218.59;5548419;32;33695;-67
2022/08/12 16:04:19;;;;;;;4.97;1.48;;;;;;;28.04;34.72;100205.59;5549466;32;34519;-68
2022/08/12 16:07:24;;;;;;;5.85;1.10;;;;;;;27.94;34.99;100215.78;5549237;32;34703;-68
2022/08/12 16:10:32;;;;;;;6.18;1.30;;;;;;;27.93;34.81;100214.97;5549497;32;34434;-69
2022/08/12 16:13:35;;;;;;;9.25;1.35;;;;;;;27.71;35.19;100214.63;5549039;32;34286;-69
2022/08/12 16:16:38;;;;;;;1.62;1.25;;;;;;;27.56;35.23;100210.09;5547548;32;34770;-69
2022/08/12 16:19:41;;;;;;;6.95;1.10;;;;;;;27.57;35.31;100208.19;5549303;32;34172;-70
2022/08/12 16:23:10;;;;;;;1.92;1.00;;;;;;;28.29;34.38;100211.94;5548314;32;33830;-69
2022/08/12 16:26:34;;;;;;;2.33;1.15;;;;;;;28.06;34.93;100208.88;5548890;32;34297;-66
2022/08/12 16:29:40;;;;;;;1.73;1.10;;;;;;;28.40;34.43;100206.09;5548745;32;34039;-70
2022/08/12 16:33:07;;;;;;;3.45;1.33;;;;;;;28.89;33.67;100203.09;5549360;32;33911;-69
2022/08/12 16:36:12;;;;;;;2.05;1.20;;;;;;;28.48;33.84;100205.44;5549126;32;34679;-69
2022/08/12 16:39:21;;;;;;;1.75;1.30;;;;;;;27.93;35.05;100193.16;5548296;32;33939;-67
2022/08/12 16:42:24;;;;;;;3.10;1.17;;;;;;;27.53;35.48;100185.34;5549424;32;35304;-68
2022/08/12 16:45:33;;;;;;;2.47;1.30;;;;;;;27.36;35.50;100188.41;5548942;32;34382;-68
2022/08/12 16:48:56;;;;;;;5.65;1.20;;;;;;;27.16;35.71;100193.97;5548873;32;34063;-68